Time;durP1;ratioP1;P1;durP2;ratioP2;P2;SDS_P1;SDS_P2;PMS_P1;PMS_P2;Temp;Humidity;BMP_temperature;BMP_pressure;BME280_temperature;BME280_humidity;BME280_pressure;Samples;Min_cycle;Max_cycle;Signal;HPM_P1;HPM_P2
2022/12/23 00:01:03;;;;;;;14.63;3.88;;;;;;;;;;7399696;19;20078;-74
2022/12/23 00:03:30;;;;;;;15.93;4.32;;;;;;;;;;7398414;19;20010;-75
2022/12/23 00:05:55;;;;;;;11.20;4.18;;;;;;;;;;7399765;19;20089;-74
2022/12/23 00:08:21;;;;;;;11.73;4.47;;;;;;;;;;7400218;19;20113;-74
2022/12/23 00:10:48;;;;;;;17.85;4.88;;;;;;;;;;7400375;19;20027;-73
2022/12/23 00:16:12;;;;;;;15.07;3.97;;;;;;;;;;7392843;19;20005;-74
2022/12/23 00:18:38;;;;;;;10.68;3.88;;;;;;;;;;7392756;19;20489;-75
2022/12/23 00:21:12;;;;;;;13.02;4.20;;;;;;;;;;7392484;19;20015;-74
2022/12/23 00:23:40;;;;;;;12.02;4.60;;;;;;;;;;7391235;19;19998;-75
2022/12/23 00:26:05;;;;;;;10.95;4.05;;;;;;;;;;7391774;19;20414;-75
2022/12/23 00:28:31;;;;;;;8.80;4.25;;;;;;;;;;7392498;19;20032;-74
2022/12/23 00:31:04;;;;;;;14.95;4.40;;;;;;;;;;7392267;19;20321;-75
2022/12/23 00:33:35;;;;;;;12.20;4.30;;;;;;;;;;7390360;19;20353;-74
2022/12/23 00:36:01;;;;;;;;;;;;;;;;;;7391628;19;20031;-75
2022/12/23 00:44:03;;;;;;;9.88;4.38;;;;;;;;;;7390752;19;20037;-75
2022/12/23 00:46:28;;;;;;;13.68;4.63;;;;;;;;;;7389755;19;20087;-75
2022/12/23 00:51:37;;;;;;;19.27;5.22;;;;;;;;;;7391759;19;20010;-75
2022/12/23 00:54:03;;;;;;;11.27;4.57;;;;;;;;;;7388975;19;19998;-75
2022/12/23 00:56:29;;;;;;;13.60;4.22;;;;;;;;;;7389612;19;20074;-75
2022/12/23 00:58:54;;;;;;;14.95;4.90;;;;;;;;;;7390816;19;20361;-75
2022/12/23 01:06:47;;;;;;;12.52;4.82;;;;;;;;;;7393352;19;20074;-75
2022/12/23 01:09:13;;;;;;;13.43;4.43;;;;;;;;;;7394368;19;20011;-76
2022/12/23 01:11:38;;;;;;;7.82;4.30;;;;;;;;;;7390150;19;20015;-75
2022/12/23 01:14:04;;;;;;;12.25;4.65;;;;;;;;;;7386648;19;19998;-75
2022/12/23 01:16:30;;;;;;;9.40;4.22;;;;;;;;;;7385977;19;20485;-76
2022/12/23 01:18:55;;;;;;;11.95;4.60;;;;;;;;;;7389004;19;20054;-76
2022/12/23 01:21:20;;;;;;;9.77;4.03;;;;;;;;;;7387427;19;19990;-76
2022/12/23 01:23:46;;;;;;;7.95;3.95;;;;;;;;;;7387442;19;20024;-76
2022/12/23 01:26:11;;;;;;;11.07;4.47;;;;;;;;;;7389048;19;20017;-75
2022/12/23 01:28:36;;;;;;;6.13;3.75;;;;;;;;;;7390037;19;20062;-75
2022/12/23 01:31:04;;;;;;;11.25;3.45;;;;;;;;;;7389353;19;19995;-75
2022/12/23 01:33:31;;;;;;;5.72;3.05;;;;;;;;;;7387548;19;19998;-76
2022/12/23 01:36:05;;;;;;;6.28;2.88;;;;;;;;;;7389242;19;20003;-76
2022/12/23 01:38:31;;;;;;;6.60;3.20;;;;;;;;;;7389827;19;20418;-76
2022/12/23 01:40:56;;;;;;;5.32;2.60;;;;;;;;;;7389690;19;20003;-76
2022/12/23 01:43:22;;;;;;;6.75;2.88;;;;;;;;;;7388280;19;20002;-76
2022/12/23 01:45:48;;;;;;;4.32;2.58;;;;;;;;;;7388729;19;20010;-75
2022/12/23 01:48:21;;;;;;;6.07;2.45;;;;;;;;;;7388772;19;19998;-75
2022/12/23 01:51:23;;;;;;;4.25;2.20;;;;;;;;;;7388446;19;20010;-75
2022/12/23 01:53:53;;;;;;;4.32;2.22;;;;;;;;;;7385055;19;20026;-75
2022/12/23 01:56:24;;;;;;;4.67;2.30;;;;;;;;;;7391857;19;20439;-75
2022/12/23 01:58:54;;;;;;;3.88;2.30;;;;;;;;;;7388629;19;19998;-75
2022/12/23 02:04:10;;;;;;;3.33;1.70;;;;;;;;;;7391232;19;20031;-76
2022/12/23 02:09:31;;;;;;;3.42;1.30;;;;;;;;;;7387239;19;19999;-76
2022/12/23 02:12:22;;;;;;;2.20;1.40;;;;;;;;;;7388730;19;20075;-75
2022/12/23 02:18:35;;;;;;;2.78;1.02;;;;;;;;;;7387896;19;20015;-75
2022/12/23 02:21:33;;;;;;;1.40;1.00;;;;;;;;;;7390737;19;20008;-74
2022/12/23 02:24:01;;;;;;;1.38;0.88;;;;;;;;;;7384691;19;19999;-75
2022/12/23 02:27:05;;;;;;;1.48;1.02;;;;;;;;;;7387635;19;20468;-74
2022/12/23 02:29:30;;;;;;;2.70;1.45;;;;;;;;;;7384486;19;20500;-74
2022/12/23 02:32:22;;;;;;;3.25;1.60;;;;;;;;;;7384684;19;20094;-75
2022/12/23 02:35:03;;;;;;;2.25;1.65;;;;;;;;;;7383710;19;20340;-75
2022/12/23 02:37:36;;;;;;;2.05;1.63;;;;;;;;;;7386305;19;20006;-74
2022/12/23 02:40:20;;;;;;;6.25;1.90;;;;;;;;;;7388547;19;20479;-74
2022/12/23 02:42:52;;;;;;;3.42;1.52;;;;;;;;;;7385658;19;20476;-75
2022/12/23 02:45:34;;;;;;;4.05;1.80;;;;;;;;;;7387981;19;20019;-74
2022/12/23 02:48:16;;;;;;;3.17;1.63;;;;;;;;;;7386090;19;20726;-76
2022/12/23 02:50:45;;;;;;;3.78;2.03;;;;;;;;;;7387789;19;20009;-75
2022/12/23 02:53:17;;;;;;;5.43;2.10;;;;;;;;;;7386212;19;20014;-75
2022/12/23 02:55:45;;;;;;;1.98;1.20;;;;;;;;;;7387269;19;20013;-76
2022/12/23 02:58:14;;;;;;;6.80;1.80;;;;;;;;;;7387823;19;20115;-74
2022/12/23 03:00:42;;;;;;;3.78;1.90;;;;;;;;;;7387402;19;20003;-75
2022/12/23 03:03:08;;;;;;;3.30;1.50;;;;;;;;;;7385873;19;19998;-75
2022/12/23 03:05:40;;;;;;;4.53;1.80;;;;;;;;;;7386897;19;20022;-74
2022/12/23 03:08:11;;;;;;;3.03;1.60;;;;;;;;;;7387772;19;20011;-75
2022/12/23 03:11:01;;;;;;;2.80;1.42;;;;;;;;;;7387518;19;20002;-76
2022/12/23 03:13:45;;;;;;;4.60;2.00;;;;;;;;;;7385518;19;20003;-76
2022/12/23 03:16:19;;;;;;;3.92;1.73;;;;;;;;;;7389123;19;20460;-75
2022/12/23 03:19:00;;;;;;;3.38;1.55;;;;;;;;;;7386604;19;20357;-74
2022/12/23 03:21:41;;;;;;;2.60;1.43;;;;;;;;;;7387083;19;20003;-76
2022/12/23 03:24:45;;;;;;;4.95;1.55;;;;;;;;;;7389779;19;20244;-75
2022/12/23 03:27:24;;;;;;;3.25;1.55;;;;;;;;;;7382731;19;20459;-76
2022/12/23 03:29:58;;;;;;;6.03;1.70;;;;;;;;;;7386452;19;20022;-75
2022/12/23 03:32:27;;;;;;;3.67;1.77;;;;;;;;;;7384890;19;20304;-75
2022/12/23 03:34:55;;;;;;;3.45;1.80;;;;;;;;;;7381598;19;20029;-75
2022/12/23 03:37:24;;;;;;;4.90;2.42;;;;;;;;;;7388746;19;20007;-76
2022/12/23 03:39:56;;;;;;;4.00;2.45;;;;;;;;;;7388168;19;20023;-75
2022/12/23 03:42:49;;;;;;;4.60;2.42;;;;;;;;;;7386198;19;20003;-76
2022/12/23 03:45:22;;;;;;;7.15;3.28;;;;;;;;;;7386585;19;19999;-76
2022/12/23 03:47:53;;;;;;;6.63;3.03;;;;;;;;;;7387548;19;20006;-76
2022/12/23 03:50:20;;;;;;;6.05;2.85;;;;;;;;;;7395415;19;20359;-76
2022/12/23 03:52:50;;;;;;;6.82;3.25;;;;;;;;;;7391593;19;20048;-76
2022/12/23 03:55:35;;;;;;;7.75;3.60;;;;;;;;;;7390358;19;20013;-76
2022/12/23 03:58:19;;;;;;;6.78;3.20;;;;;;;;;;7390600;19;20461;-75
2022/12/23 04:00:55;;;;;;;5.97;3.00;;;;;;;;;;7393308;19;20306;-75
2022/12/23 04:03:40;;;;;;;5.93;2.85;;;;;;;;;;7390763;19;20014;-76
2022/12/23 04:06:11;;;;;;;6.30;3.45;;;;;;;;;;7389413;19;20003;-75
2022/12/23 04:08:37;;;;;;;6.53;2.73;;;;;;;;;;7392567;19;20019;-75
2022/12/23 04:11:03;;;;;;;8.80;2.88;;;;;;;;;;7392088;19;20323;-76
2022/12/23 04:13:29;;;;;;;4.75;2.50;;;;;;;;;;7391019;19;20630;-76
2022/12/23 04:15:57;;;;;;;6.47;2.72;;;;;;;;;;7391758;19;20005;-75
2022/12/23 04:18:22;;;;;;;5.15;2.50;;;;;;;;;;7392744;19;20094;-76
2022/12/23 04:20:47;;;;;;;6.45;3.10;;;;;;;;;;7392170;19;20003;-75
2022/12/23 04:23:13;;;;;;;7.22;2.80;;;;;;;;;;7390004;19;20008;-76
2022/12/23 04:25:38;;;;;;;5.13;2.53;;;;;;;;;;7391023;19;19998;-76
2022/12/23 04:28:03;;;;;;;6.40;2.97;;;;;;;;;;7391739;19;19999;-75
2022/12/23 04:30:29;;;;;;;6.32;2.83;;;;;;;;;;7391856;19;19990;-76
2022/12/23 04:32:54;;;;;;;4.82;2.58;;;;;;;;;;7389815;19;20078;-76
2022/12/23 04:35:20;;;;;;;5.22;2.42;;;;;;;;;;7388815;19;20209;-76
2022/12/23 04:37:45;;;;;;;4.70;2.22;;;;;;;;;;7388533;19;19999;-76
2022/12/23 04:40:11;;;;;;;4.00;1.90;;;;;;;;;;7391198;19;20078;-76
2022/12/23 04:42:36;;;;;;;3.95;2.20;;;;;;;;;;7389477;19;20460;-75
2022/12/23 04:45:02;;;;;;;4.15;2.20;;;;;;;;;;7390880;19;20029;-77
2022/12/23 04:47:27;;;;;;;5.28;2.25;;;;;;;;;;7388861;19;20046;-76
2022/12/23 04:49:53;;;;;;;4.18;2.05;;;;;;;;;;7389694;19;19998;-75
2022/12/23 04:52:18;;;;;;;4.53;1.90;;;;;;;;;;7390753;19;20059;-76
2022/12/23 04:54:43;;;;;;;5.95;2.40;;;;;;;;;;7385621;19;19999;-78
2022/12/23 04:57:09;;;;;;;6.57;2.10;;;;;;;;;;7388960;19;20111;-76
2022/12/23 04:59:34;;;;;;;3.55;2.05;;;;;;;;;;7389164;19;19998;-76
2022/12/23 05:01:59;;;;;;;3.75;2.00;;;;;;;;;;7390850;19;20004;-75
2022/12/23 05:04:25;;;;;;;4.47;1.77;;;;;;;;;;7389287;19;20002;-77
2022/12/23 05:06:50;;;;;;;3.70;1.67;;;;;;;;;;7389363;19;20390;-76
2022/12/23 05:09:15;;;;;;;3.28;1.67;;;;;;;;;;7390416;19;20070;-76
2022/12/23 05:11:41;;;;;;;2.22;1.50;;;;;;;;;;7390342;19;20015;-75
2022/12/23 05:14:08;;;;;;;2.45;1.50;;;;;;;;;;7385380;19;20003;-75
2022/12/23 05:16:34;;;;;;;2.47;1.40;;;;;;;;;;7394717;19;20280;-75
2022/12/23 05:18:59;;;;;;;2.08;1.42;;;;;;;;;;7390799;19;20456;-75
2022/12/23 05:21:24;;;;;;;3.65;1.58;;;;;;;;;;7390693;19;20003;-75
2022/12/23 05:23:50;;;;;;;4.30;1.45;;;;;;;;;;7389216;19;20556;-75
2022/12/23 05:26:15;;;;;;;2.47;1.42;;;;;;;;;;7389739;19;20022;-75
2022/12/23 05:28:42;;;;;;;2.65;1.30;;;;;;;;;;7389688;19;19998;-75
2022/12/23 05:31:09;;;;;;;3.30;1.50;;;;;;;;;;7388417;19;20006;-76
2022/12/23 05:33:34;;;;;;;1.95;1.30;;;;;;;;;;7387516;19;20070;-76
2022/12/23 05:36:00;;;;;;;3.10;1.50;;;;;;;;;;7391458;19;20007;-76
2022/12/23 05:38:29;;;;;;;1.77;1.25;;;;;;;;;;7393692;19;19998;-76
2022/12/23 05:40:54;;;;;;;1.77;1.33;;;;;;;;;;7391126;19;19991;-75
2022/12/23 05:43:20;;;;;;;3.95;1.42;;;;;;;;;;7388713;19;20030;-75
2022/12/23 05:45:46;;;;;;;1.70;0.98;;;;;;;;;;7392632;19;19999;-75
2022/12/23 05:48:12;;;;;;;0.95;0.90;;;;;;;;;;7393552;19;20484;-75
2022/12/23 05:50:38;;;;;;;1.30;0.98;;;;;;;;;;7389195;19;20018;-75
2022/12/23 05:53:04;;;;;;;2.88;1.10;;;;;;;;;;7391736;19;20024;-76
2022/12/23 05:55:29;;;;;;;1.10;0.82;;;;;;;;;;7391114;19;20011;-76
2022/12/23 05:57:58;;;;;;;1.60;1.00;;;;;;;;;;7393725;19;19990;-76
2022/12/23 06:00:23;;;;;;;0.90;0.77;;;;;;;;;;7388777;19;20001;-76
2022/12/23 06:02:49;;;;;;;0.77;0.63;;;;;;;;;;7392042;19;20272;-76
2022/12/23 06:05:15;;;;;;;0.65;0.65;;;;;;;;;;7391115;19;20011;-76
2022/12/23 06:07:43;;;;;;;1.52;0.82;;;;;;;;;;7390628;19;20026;-76
2022/12/23 06:10:09;;;;;;;2.63;0.70;;;;;;;;;;7387509;19;20006;-77
2022/12/23 06:12:36;;;;;;;2.63;1.45;;;;;;;;;;7386051;19;20342;-76
2022/12/23 06:15:02;;;;;;;2.08;1.08;;;;;;;;;;7392182;19;19998;-76
2022/12/23 06:17:27;;;;;;;0.60;0.60;;;;;;;;;;7389789;19;20633;-77
2022/12/23 06:19:53;;;;;;;0.55;0.55;;;;;;;;;;7391933;19;20008;-77
2022/12/23 06:22:20;;;;;;;0.60;0.52;;;;;;;;;;7391319;19;20013;-76
2022/12/23 06:24:46;;;;;;;4.05;0.98;;;;;;;;;;7385888;19;20029;-76
2022/12/23 06:27:11;;;;;;;0.60;0.60;;;;;;;;;;7391279;19;20170;-76
2022/12/23 06:29:36;;;;;;;1.10;0.60;;;;;;;;;;7391452;19;20014;-75
2022/12/23 06:32:02;;;;;;;1.20;0.60;;;;;;;;;;7387515;19;20002;-76
2022/12/23 06:34:27;;;;;;;0.82;0.80;;;;;;;;;;7386423;19;20003;-77
2022/12/23 06:36:53;;;;;;;2.22;0.70;;;;;;;;;;7389039;19;20417;-75
2022/12/23 06:39:18;;;;;;;0.55;0.50;;;;;;;;;;7392275;19;20002;-73
2022/12/23 06:41:44;;;;;;;0.57;0.57;;;;;;;;;;7375918;19;20001;-74
2022/12/23 06:44:09;;;;;;;0.52;0.52;;;;;;;;;;7387421;19;20049;-74
2022/12/23 06:46:35;;;;;;;0.55;0.55;;;;;;;;;;7389564;19;20002;-73
2022/12/23 06:49:00;;;;;;;0.93;0.60;;;;;;;;;;7390098;19;20514;-75
2022/12/23 06:51:26;;;;;;;0.95;0.75;;;;;;;;;;7388769;19;20021;-75
2022/12/23 06:53:51;;;;;;;2.38;0.80;;;;;;;;;;7382215;19;19999;-75
2022/12/23 06:56:17;;;;;;;0.68;0.68;;;;;;;;;;7367931;19;20014;-75
2022/12/23 06:58:42;;;;;;;3.55;0.90;;;;;;;;;;7389751;19;19995;-75
2022/12/23 07:01:07;;;;;;;0.60;0.60;;;;;;;;;;7391522;19;20006;-75
2022/12/23 07:03:33;;;;;;;0.88;0.60;;;;;;;;;;7389435;19;20345;-75
2022/12/23 07:05:58;;;;;;;0.88;0.60;;;;;;;;;;7390140;19;20002;-75
2022/12/23 07:08:23;;;;;;;0.55;0.47;;;;;;;;;;7387185;19;20559;-75
2022/12/23 07:10:49;;;;;;;0.70;0.68;;;;;;;;;;7390837;19;20725;-75
2022/12/23 07:13:14;;;;;;;2.72;0.68;;;;;;;;;;7387052;19;20444;-75
2022/12/23 07:15:39;;;;;;;0.50;0.50;;;;;;;;;;7388052;19;20014;-78
2022/12/23 07:18:05;;;;;;;0.60;0.60;;;;;;;;;;7388931;19;20678;-74
2022/12/23 07:20:30;;;;;;;1.65;0.80;;;;;;;;;;7390703;19;20429;-74
2022/12/23 07:22:59;;;;;;;0.93;0.70;;;;;;;;;;7393812;19;20368;-74
2022/12/23 07:25:25;;;;;;;1.73;0.90;;;;;;;;;;7391302;19;20002;-75
2022/12/23 07:27:54;;;;;;;0.80;0.80;;;;;;;;;;7390263;19;20002;-76
2022/12/23 07:30:20;;;;;;;0.73;0.47;;;;;;;;;;7395234;19;20002;-75
2022/12/23 07:32:49;;;;;;;1.60;0.73;;;;;;;;;;7392999;19;20006;-76
2022/12/23 07:35:15;;;;;;;1.23;0.77;;;;;;;;;;7393608;19;19998;-75
2022/12/23 07:37:40;;;;;;;1.13;0.68;;;;;;;;;;7392078;19;20007;-75
2022/12/23 07:40:07;;;;;;;1.02;0.50;;;;;;;;;;7396390;19;19998;-75
2022/12/23 07:42:32;;;;;;;1.55;0.75;;;;;;;;;;7396181;19;19999;-75
2022/12/23 07:44:57;;;;;;;0.82;0.70;;;;;;;;;;7398389;19;20109;-75
2022/12/23 07:47:23;;;;;;;1.08;0.63;;;;;;;;;;7392176;19;20452;-75
2022/12/23 07:49:48;;;;;;;0.57;0.57;;;;;;;;;;7395758;19;20010;-74
2022/12/23 07:52:14;;;;;;;2.38;0.60;;;;;;;;;;7395559;19;20006;-75
2022/12/23 07:54:39;;;;;;;1.52;0.57;;;;;;;;;;7394254;19;20003;-75
2022/12/23 07:57:05;;;;;;;0.65;0.65;;;;;;;;;;7391623;19;20092;-75
2022/12/23 07:59:30;;;;;;;0.55;0.52;;;;;;;;;;7393514;19;20534;-76
2022/12/23 08:01:55;;;;;;;3.22;1.45;;;;;;;;;;7391519;19;19994;-75
2022/12/23 08:04:21;;;;;;;5.50;2.13;;;;;;;;;;7395683;19;20080;-75
2022/12/23 08:06:46;;;;;;;4.90;2.00;;;;;;;;;;7379850;19;20006;-75
2022/12/23 08:09:11;;;;;;;4.57;2.03;;;;;;;;;;7385795;19;19998;-76
2022/12/23 08:11:37;;;;;;;4.93;2.08;;;;;;;;;;7387770;19;20018;-76
2022/12/23 08:14:02;;;;;;;5.45;2.42;;;;;;;;;;7385657;19;20013;-75
2022/12/23 08:16:27;;;;;;;3.63;2.25;;;;;;;;;;7388673;19;20021;-76
2022/12/23 08:18:53;;;;;;;4.43;2.30;;;;;;;;;;7387994;19;20476;-77
2022/12/23 08:21:18;;;;;;;6.60;2.60;;;;;;;;;;7389551;19;20030;-76
2022/12/23 08:23:46;;;;;;;9.60;2.80;;;;;;;;;;7388291;19;20003;-77
2022/12/23 08:26:20;;;;;;;5.13;2.78;;;;;;;;;;7390894;19;20042;-76
2022/12/23 08:28:45;;;;;;;6.75;2.75;;;;;;;;;;7388534;19;20690;-75
2022/12/23 08:31:18;;;;;;;8.38;3.20;;;;;;;;;;7391857;19;20002;-76
2022/12/23 08:33:46;;;;;;;6.13;2.70;;;;;;;;;;7384570;19;20007;-77
2022/12/23 08:36:14;;;;;;;5.82;2.97;;;;;;;;;;7388367;19;20519;-77
2022/12/23 08:38:40;;;;;;;5.03;2.53;;;;;;;;;;7388910;19;20037;-76
2022/12/23 08:41:10;;;;;;;5.60;2.90;;;;;;;;;;7390811;19;20031;-77
2022/12/23 08:43:35;;;;;;;6.93;2.88;;;;;;;;;;7387642;19;20009;-76
2022/12/23 08:46:01;;;;;;;5.32;2.83;;;;;;;;;;7389085;19;20066;-76
2022/12/23 08:48:26;;;;;;;7.45;2.80;;;;;;;;;;7389127;19;20002;-76
2022/12/23 08:50:52;;;;;;;5.70;2.85;;;;;;;;;;7388590;19;20002;-76
2022/12/23 08:53:17;;;;;;;5.63;2.90;;;;;;;;;;7388883;19;20030;-75
2022/12/23 08:55:44;;;;;;;5.20;2.75;;;;;;;;;;7387889;19;20079;-77
2022/12/23 08:58:12;;;;;;;9.38;2.80;;;;;;;;;;7391300;19;20110;-76
2022/12/23 09:00:37;;;;;;;7.57;4.32;;;;;;;;;;7388590;19;20019;-77
2022/12/23 09:03:03;;;;;;;8.13;3.30;;;;;;;;;;7389514;19;20007;-76
2022/12/23 09:05:29;;;;;;;6.10;3.28;;;;;;;;;;7387475;19;20055;-75
2022/12/23 09:07:54;;;;;;;5.13;2.97;;;;;;;;;;7386238;19;20037;-77
2022/12/23 09:10:20;;;;;;;5.18;3.20;;;;;;;;;;7389336;19;20523;-76
2022/12/23 09:12:45;;;;;;;9.85;2.97;;;;;;;;;;7388275;19;20465;-76
2022/12/23 09:15:11;;;;;;;7.00;3.90;;;;;;;;;;7386666;19;20121;-77
2022/12/23 09:17:36;;;;;;;13.18;4.70;;;;;;;;;;7385134;19;20479;-78
2022/12/23 09:20:02;;;;;;;10.48;4.47;;;;;;;;;;7387886;19;20010;-78
2022/12/23 09:22:27;;;;;;;14.43;4.30;;;;;;;;;;7387275;19;20006;-77
2022/12/23 09:24:54;;;;;;;12.23;4.93;;;;;;;;;;7386345;19;20003;-78
2022/12/23 09:27:20;;;;;;;9.35;4.50;;;;;;;;;;7387601;19;20003;-76
2022/12/23 09:29:45;;;;;;;9.07;4.05;;;;;;;;;;7388497;19;20018;-77
2022/12/23 09:32:10;;;;;;;14.38;5.10;;;;;;;;;;7389813;19;20002;-78
2022/12/23 09:34:35;;;;;;;15.10;4.65;;;;;;;;;;7384118;19;20044;-76
2022/12/23 09:37:02;;;;;;;10.95;4.53;;;;;;;;;;7387335;19;20003;-76
2022/12/23 09:39:27;;;;;;;9.55;4.32;;;;;;;;;;7390415;19;20010;-76
2022/12/23 09:42:14;;;;;;;10.43;3.95;;;;;;;;;;7388448;19;19994;-75
2022/12/23 09:45:13;;;;;;;6.65;3.50;;;;;;;;;;7385065;19;20010;-79
2022/12/23 09:47:40;;;;;;;7.65;3.80;;;;;;;;;;7384646;19;20006;-76
2022/12/23 09:50:28;;;;;;;8.05;3.85;;;;;;;;;;7389787;19;20010;-77
2022/12/23 09:53:01;;;;;;;6.85;3.58;;;;;;;;;;7384903;19;20035;-76
2022/12/23 09:55:48;;;;;;;10.60;4.00;;;;;;;;;;7387821;19;20006;-77
2022/12/23 09:58:35;;;;;;;7.60;4.07;;;;;;;;;;7389426;19;20003;-76
2022/12/23 10:01:17;;;;;;;8.55;3.90;;;;;;;;;;7389245;19;20010;-76
2022/12/23 10:04:15;;;;;;;7.20;3.50;;;;;;;;;;7386240;19;20015;-76
2022/12/23 10:06:44;;;;;;;8.88;3.63;;;;;;;;;;7386496;19;20011;-75
2022/12/23 10:09:12;;;;;;;6.82;3.60;;;;;;;;;;7386574;19;20010;-75
2022/12/23 10:11:41;;;;;;;10.73;3.85;;;;;;;;;;7387471;19;20006;-75
2022/12/23 10:14:21;;;;;;;8.52;3.70;;;;;;;;;;7387343;19;20006;-75
2022/12/23 10:16:59;;;;;;;6.83;3.30;;;;;;;;;;7385000;19;20459;-77
2022/12/23 10:19:40;;;;;;;8.13;3.97;;;;;;;;;;7384271;19;20031;-76
2022/12/23 10:22:23;;;;;;;5.55;3.42;;;;;;;;;;7387048;19;20011;-77
2022/12/23 10:24:48;;;;;;;7.65;4.00;;;;;;;;;;7382373;19;20003;-76
2022/12/23 10:27:21;;;;;;;7.07;3.75;;;;;;;;;;7387322;19;20022;-76
2022/12/23 10:29:46;;;;;;;7.15;4.03;;;;;;;;;;7385856;19;20002;-74
2022/12/23 10:32:36;;;;;;;9.57;4.28;;;;;;;;;;7387748;19;20027;-75
2022/12/23 10:35:11;;;;;;;6.85;4.30;;;;;;;;;;7384619;19;20010;-74
2022/12/23 10:37:54;;;;;;;8.20;4.93;;;;;;;;;;7384737;19;20078;-75
2022/12/23 10:40:27;;;;;;;11.45;5.28;;;;;;;;;;7385474;19;20002;-76
2022/12/23 10:43:29;;;;;;;10.20;4.70;;;;;;;;;;7384780;19;20002;-74
2022/12/23 10:46:08;;;;;;;12.05;4.72;;;;;;;;;;7385296;19;20399;-75
2022/12/23 10:48:54;;;;;;;11.32;5.00;;;;;;;;;;7386245;19;19998;-76
2022/12/23 10:51:31;;;;;;;8.35;4.90;;;;;;;;;;7385939;19;20002;-75
2022/12/23 10:54:07;;;;;;;8.32;4.30;;;;;;;;;;7383466;19;20082;-75
2022/12/23 10:56:33;;;;;;;7.63;3.97;;;;;;;;;;7379966;19;19998;-75
2022/12/23 10:59:00;;;;;;;7.60;4.68;;;;;;;;;;7385029;19;20006;-74
2022/12/23 11:01:28;;;;;;;9.32;4.57;;;;;;;;;;7384056;19;20009;-77
2022/12/23 11:04:13;;;;;;;8.40;4.78;;;;;;;;;;7386462;19;20003;-76
2022/12/23 11:06:44;;;;;;;8.57;4.03;;;;;;;;;;7323686;19;20001;-76
2022/12/23 11:09:17;;;;;;;7.53;3.80;;;;;;;;;;7369446;19;20014;-76
2022/12/23 11:12:03;;;;;;;6.53;3.60;;;;;;;;;;7380318;19;20368;-76
2022/12/23 11:14:41;;;;;;;5.97;3.40;;;;;;;;;;7377302;19;20027;-77
2022/12/23 11:17:28;;;;;;;7.72;3.40;;;;;;;;;;7380017;19;20067;-76
2022/12/23 11:20:17;;;;;;;8.15;3.92;;;;;;;;;;7377751;19;20073;-75
2022/12/23 11:22:50;;;;;;;8.68;3.95;;;;;;;;;;7378387;19;20301;-77
2022/12/23 11:25:35;;;;;;;11.27;4.50;;;;;;;;;;7389012;19;20011;-76
2022/12/23 11:28:09;;;;;;;8.25;4.20;;;;;;;;;;7385046;19;20003;-75
2022/12/23 11:30:46;;;;;;;13.55;5.30;;;;;;;;;;7386975;19;19999;-76
2022/12/23 11:33:21;;;;;;;9.90;5.40;;;;;;;;;;7383144;19;20026;-76
2022/12/23 11:35:58;;;;;;;12.35;7.63;;;;;;;;;;7390452;19;20010;-75
2022/12/23 11:38:24;;;;;;;11.15;7.32;;;;;;;;;;7386153;19;20019;-71
2022/12/23 11:40:49;;;;;;;13.32;8.73;;;;;;;;;;7389002;19;20369;-71
2022/12/23 11:43:16;;;;;;;12.65;8.27;;;;;;;;;;7384560;19;20062;-73
2022/12/23 11:45:41;;;;;;;11.98;8.15;;;;;;;;;;7385555;19;20023;-76
2022/12/23 11:48:27;;;;;;;11.98;8.13;;;;;;;;;;7384037;19;20010;-79
2022/12/23 11:51:00;;;;;;;14.70;8.43;;;;;;;;;;7386867;19;19998;-80
2022/12/23 11:53:26;;;;;;;11.20;7.75;;;;;;;;;;7384990;19;20006;-77
2022/12/23 11:56:12;;;;;;;17.63;8.98;;;;;;;;;;7374795;19;20039;-85
2022/12/23 11:58:51;;;;;;;16.17;7.78;;;;;;;;;;7379918;19;20066;-81
2022/12/23 12:01:22;;;;;;;10.18;7.13;;;;;;;;;;7380480;19;20062;-81
2022/12/23 12:04:05;;;;;;;9.57;6.03;;;;;;;;;;7377397;19;20072;-81
2022/12/23 12:06:31;;;;;;;9.05;6.05;;;;;;;;;;7378571;19;20446;-82
2022/12/23 12:08:59;;;;;;;9.30;5.90;;;;;;;;;;7391084;19;20037;-85
2022/12/23 12:11:28;;;;;;;11.88;6.70;;;;;;;;;;7396260;19;20006;-84
2022/12/23 12:13:59;;;;;;;11.85;6.53;;;;;;;;;;7397351;19;20013;-84
2022/12/23 12:16:33;;;;;;;12.13;6.32;;;;;;;;;;7391794;19;20007;-81
2022/12/23 12:19:34;;;;;;;15.35;8.18;;;;;;;;;;7392389;19;20031;-83
2022/12/23 12:22:04;;;;;;;16.90;10.18;;;;;;;;;;7393308;19;20365;-84
2022/12/23 12:24:46;;;;;;;13.67;7.53;;;;;;;;;;7391627;19;20007;-84
2022/12/23 12:27:12;;;;;;;39.47;21.52;;;;;;;;;;7383980;19;20006;-82
2022/12/23 12:29:47;;;;;;;14.93;8.07;;;;;;;;;;7393851;19;20270;-86
2022/12/23 12:32:20;;;;;;;30.48;15.80;;;;;;;;;;7388930;19;20019;-80
2022/12/23 12:34:58;;;;;;;10.40;6.28;;;;;;;;;;7384964;19;20086;-78
2022/12/23 12:37:38;;;;;;;44.65;20.75;;;;;;;;;;7390193;19;20022;-83
2022/12/23 12:40:17;;;;;;;107.55;48.63;;;;;;;;;;7389597;19;20025;-78
2022/12/23 12:42:51;;;;;;;28.42;13.73;;;;;;;;;;7386993;19;20026;-77
2022/12/23 12:45:22;;;;;;;46.65;25.13;;;;;;;;;;7389186;19;20416;-78
2022/12/23 12:48:02;;;;;;;41.45;22.38;;;;;;;;;;7387232;19;19999;-79
2022/12/23 12:50:31;;;;;;;27.15;14.60;;;;;;;;;;7392824;19;20007;-77
2022/12/23 12:53:02;;;;;;;11.57;6.88;;;;;;;;;;7395206;19;20010;-78
2022/12/23 12:55:35;;;;;;;13.33;7.00;;;;;;;;;;7394462;19;20001;-78
2022/12/23 12:58:03;;;;;;;12.50;6.85;;;;;;;;;;7397449;19;20792;-79
2022/12/23 13:00:38;;;;;;;12.32;5.93;;;;;;;;;;7400789;19;20000;-77
2022/12/23 13:03:34;;;;;;;12.00;5.50;;;;;;;;;;7393220;19;20014;-76
2022/12/23 13:06:30;;;;;;;12.93;5.78;;;;;;;;;;7391444;19;20430;-77
2022/12/23 13:09:07;;;;;;;13.27;6.38;;;;;;;;;;7388819;19;20009;-77
2022/12/23 13:11:58;;;;;;;26.80;14.02;;;;;;;;;;7393103;19;19986;-75
2022/12/23 13:14:45;;;;;;;13.43;7.75;;;;;;;;;;7389094;19;20030;-76
2022/12/23 13:17:18;;;;;;;22.27;14.52;;;;;;;;;;7395491;19;20015;-77
2022/12/23 13:20:18;;;;;;;23.60;14.15;;;;;;;;;;7390389;19;19998;-77
2022/12/23 13:22:48;;;;;;;35.05;19.48;;;;;;;;;;7391668;19;20041;-76
2022/12/23 13:25:18;;;;;;;11.40;7.05;;;;;;;;;;7393869;19;20029;-79
2022/12/23 13:27:53;;;;;;;13.52;6.95;;;;;;;;;;7390749;19;20009;-78
2022/12/23 13:30:22;;;;;;;27.67;16.70;;;;;;;;;;7396379;19;20091;-78
2022/12/23 13:33:00;;;;;;;23.45;14.82;;;;;;;;;;7390700;19;20003;-77
2022/12/23 13:35:57;;;;;;;21.40;13.70;;;;;;;;;;7391841;19;20398;-77
2022/12/23 13:38:35;;;;;;;29.13;18.25;;;;;;;;;;7396448;19;20289;-77
2022/12/23 13:41:33;;;;;;;15.80;9.20;;;;;;;;;;7387042;19;19998;-76
2022/12/23 13:44:00;;;;;;;14.30;8.32;;;;;;;;;;7388504;19;20009;-76
2022/12/23 13:46:36;;;;;;;18.83;12.32;;;;;;;;;;7382816;19;20006;-75
2022/12/23 13:49:20;;;;;;;16.67;9.60;;;;;;;;;;7386558;19;19998;-75
2022/12/23 13:52:09;;;;;;;17.85;10.10;;;;;;;;;;7383023;19;20480;-74
2022/12/23 13:55:03;;;;;;;15.43;8.63;;;;;;;;;;7385958;19;19999;-73
2022/12/23 13:57:37;;;;;;;15.85;8.73;;;;;;;;;;7384371;19;20361;-73
2022/12/23 14:00:15;;;;;;;13.05;7.47;;;;;;;;;;7385030;19;20022;-73
2022/12/23 14:02:56;;;;;;;15.98;10.13;;;;;;;;;;7328409;19;20383;-73
2022/12/23 14:05:34;;;;;;;14.40;9.02;;;;;;;;;;7384031;19;20392;-74
2022/12/23 14:08:18;;;;;;;13.68;8.55;;;;;;;;;;7383652;19;20411;-75
2022/12/23 14:10:55;;;;;;;15.27;8.98;;;;;;;;;;7388487;19;20010;-73
2022/12/23 14:13:24;;;;;;;13.93;9.23;;;;;;;;;;7395778;19;20006;-73
2022/12/23 14:16:26;;;;;;;11.88;6.88;;;;;;;;;;7386707;19;20002;-74
2022/12/23 14:19:01;;;;;;;11.85;7.05;;;;;;;;;;7386985;19;20010;-72
2022/12/23 14:21:47;;;;;;;10.00;6.32;;;;;;;;;;7389763;19;20341;-73
2022/12/23 14:24:34;;;;;;;12.75;7.07;;;;;;;;;;7385156;19;20111;-73
2022/12/23 14:27:15;;;;;;;10.10;6.63;;;;;;;;;;7386794;19;20010;-74
2022/12/23 14:30:08;;;;;;;13.57;7.85;;;;;;;;;;7386050;19;20007;-74
2022/12/23 14:32:44;;;;;;;14.70;8.00;;;;;;;;;;7382418;19;20011;-74
2022/12/23 14:35:26;;;;;;;11.20;7.63;;;;;;;;;;7383756;19;20103;-74
2022/12/23 14:38:12;;;;;;;9.93;5.80;;;;;;;;;;7384561;19;20011;-74
2022/12/23 14:40:37;;;;;;;8.43;5.63;;;;;;;;;;7381387;19;20414;-73
2022/12/23 14:43:21;;;;;;;9.98;5.28;;;;;;;;;;7379986;19;20034;-73
2022/12/23 14:46:04;;;;;;;10.32;5.43;;;;;;;;;;7385849;19;20009;-74
2022/12/23 14:48:32;;;;;;;9.02;5.38;;;;;;;;;;7383637;19;20001;-73
2022/12/23 14:51:07;;;;;;;7.22;4.88;;;;;;;;;;7383882;19;20968;-75
2022/12/23 14:53:32;;;;;;;9.98;5.72;;;;;;;;;;7385263;19;20543;-75
2022/12/23 14:56:07;;;;;;;9.63;5.93;;;;;;;;;;7385936;19;20036;-74
2022/12/23 14:58:46;;;;;;;8.85;5.63;;;;;;;;;;7385243;19;20346;-77
2022/12/23 15:01:16;;;;;;;11.18;5.47;;;;;;;;;;7387732;19;19999;-75
2022/12/23 15:03:48;;;;;;;8.25;4.75;;;;;;;;;;7376921;19;20002;-74
2022/12/23 15:06:18;;;;;;;7.90;4.63;;;;;;;;;;7384428;19;20009;-75
2022/12/23 15:08:45;;;;;;;7.55;4.75;;;;;;;;;;7382376;19;20007;-74
2022/12/23 15:11:32;;;;;;;8.85;5.15;;;;;;;;;;7385079;19;20548;-75
2022/12/23 15:14:02;;;;;;;8.25;5.22;;;;;;;;;;7383591;19;20018;-74
2022/12/23 15:16:33;;;;;;;9.27;5.10;;;;;;;;;;7328980;19;20116;-74
2022/12/23 15:19:01;;;;;;;;;;;;;;;;;;7382286;19;20267;-75
2022/12/23 15:21:31;;;;;;;7.22;4.13;;;;;;;;;;7385165;19;19923;-75
2022/12/23 15:23:57;;;;;;;10.45;4.68;;;;;;;;;;7382827;19;20468;-74
2022/12/23 15:26:26;;;;;;;9.93;4.63;;;;;;;;;;7384705;19;20002;-73
2022/12/23 15:28:52;;;;;;;7.05;4.68;;;;;;;;;;7384788;19;20072;-72
2022/12/23 15:31:24;;;;;;;7.75;4.60;;;;;;;;;;7384112;19;20470;-73